Swanley, United Kingdom
Current Conditions -  °F | °C
As of 3:20 PM on Thursday 30 Oct 2014 (Local Time) from EGKB Reporting Station
Scattered Clouds Scattered Clouds  
Wind Chill: 17°   Ceiling: Unl
Heat Index: 17°   Visibility: 5mi
Dew Point: 13°   Wind: 6mph
Humidity: 77%   Direction: 200°SSW
Pressure: 30.09"   Gusts: NA
Location:  51.39°N, 0.18°E
Report Text: EGKB 301520Z 20005KT 170V230 8000 SCT015 17/13 Q1019
Loading
Personal Weather Stations






























Interactive Weather Map
Tropical Storm Tracking
New forecast layout! Learn more

10-Day Weather Forecast

Advertisements
Track Severe Weather on mobile